Time;durP1;ratioP1;P1;durP2;ratioP2;P2;SDS_P1;SDS_P2;PMS_P1;PMS_P2;Temp;Humidity;BMP_temperature;BMP_pressure;BME280_temperature;BME280_humidity;BME280_pressure;Samples;Min_cycle;Max_cycle;Signal;HPM_P1;HPM_P2
2022/03/30 00:00:50;;;;;;;44.30;7.97;;;;;;;10.60;62.25;95492.09;5011456;28;20467;-64
2022/03/30 00:03:16;;;;;;;39.85;10.98;;;;;;;10.15;62.50;95491.78;5010986;28;20026;-64
2022/03/30 00:05:41;;;;;;;31.98;8.70;;;;;;;9.95;62.34;95489.44;5010258;28;20127;-64
2022/03/30 00:08:07;;;;;;;38.22;8.60;;;;;;;9.90;62.37;95483.59;5011710;28;20097;-65
2022/03/30 00:10:33;;;;;;;31.25;7.40;;;;;;;9.91;61.91;95496.09;5021327;28;20038;-64
2022/03/30 00:12:59;;;;;;;35.22;10.68;;;;;;;9.94;62.48;95490.63;5011001;28;20026;-64
2022/03/30 00:15:25;;;;;;;24.80;7.57;;;;;;;10.13;62.28;95489.44;5009740;28;20560;-64
2022/03/30 00:17:51;;;;;;;43.95;8.77;;;;;;;10.19;61.71;95491.78;5010128;28;20030;-64
2022/03/30 00:20:18;;;;;;;32.17;7.22;;;;;;;10.35;61.95;95485.91;5010972;28;20028;-65
2022/03/30 00:22:44;;;;;;;32.03;7.55;;;;;;;10.48;61.68;95489.81;5011022;28;20372;-65
2022/03/30 00:25:12;;;;;;;51.20;6.97;;;;;;;10.41;60.07;95490.59;5010906;28;20032;-65
2022/03/30 00:27:38;;;;;;;35.75;8.00;;;;;;;10.51;61.22;95486.25;5009538;28;20030;-63
2022/03/30 00:30:05;;;;;;;33.55;7.93;;;;;;;10.63;60.88;95487.78;5011341;28;20029;-64
2022/03/30 00:32:32;;;;;;;30.85;7.18;;;;;;;10.73;60.55;95477.97;5009829;28;20104;-64
2022/03/30 00:34:57;;;;;;;29.50;7.35;;;;;;;10.79;60.45;95482.66;5009550;28;20032;-65
2022/03/30 00:37:23;;;;;;;26.42;7.57;;;;;;;10.82;60.99;95470.91;5010619;28;20114;-65
2022/03/30 00:39:48;;;;;;;36.58;8.40;;;;;;;10.69;61.75;95475.25;5010587;28;20025;-64
2022/03/30 00:42:18;;;;;;;32.83;7.30;;;;;;;10.58;62.31;95469.81;5010666;28;20030;-64
2022/03/30 00:44:44;;;;;;;;;;;;;;;10.56;63.37;95461.22;5009254;28;20065;-65
2022/03/30 00:47:14;;;;;;;45.08;8.88;;;;;;;10.45;62.75;95468.69;5009631;28;20258;-63
2022/03/30 00:49:40;;;;;;;34.33;9.00;;;;;;;10.39;63.02;95462.84;5011180;28;20022;-64
2022/03/30 00:52:06;;;;;;;39.55;9.20;;;;;;;10.42;63.77;95464.78;5010347;28;20525;-63
2022/03/30 00:54:31;;;;;;;33.63;8.35;;;;;;;10.44;64.53;95467.13;5008998;28;20381;-64
2022/03/30 00:56:57;;;;;;;33.60;7.55;;;;;;;10.50;64.37;95462.81;5010034;28;20036;-63
2022/03/30 00:59:23;;;;;;;33.38;6.90;;;;;;;10.59;64.50;95457.69;5010625;28;20026;-63
2022/03/30 01:01:48;;;;;;;32.47;8.07;;;;;;;10.58;64.31;95469.81;5010526;28;20025;-64
2022/03/30 01:04:14;;;;;;;37.85;8.75;;;;;;;10.54;64.42;95458.09;5009427;28;20037;-64
2022/03/30 01:06:39;;;;;;;28.55;7.90;;;;;;;10.52;64.61;95458.47;5009629;28;20034;-65
2022/03/30 01:09:04;;;;;;;27.83;8.13;;;;;;;10.48;64.40;95456.94;5010092;28;20037;-65
2022/03/30 01:11:30;;;;;;;38.08;7.40;;;;;;;10.37;64.68;95454.25;5010129;28;20037;-64
2022/03/30 01:13:56;;;;;;;28.15;7.35;;;;;;;10.21;64.48;95445.63;5010145;28;20026;-64
2022/03/30 01:16:23;;;;;;;28.60;7.03;;;;;;;10.08;65.19;95442.53;5009798;28;20467;-65
2022/03/30 01:18:49;;;;;;;30.20;8.05;;;;;;;9.96;66.20;95441.00;5008981;28;20026;-63
2022/03/30 01:21:16;;;;;;;43.40;10.32;;;;;;;10.19;65.65;95437.84;5010075;28;20998;-65
2022/03/30 01:23:42;;;;;;;35.13;8.25;;;;;;;10.35;64.58;95442.13;5010175;28;20034;-64
2022/03/30 01:26:08;;;;;;;29.45;6.88;;;;;;;10.22;64.38;95431.56;5009692;28;20501;-64
2022/03/30 01:28:35;;;;;;;34.55;10.75;;;;;;;10.33;63.56;95437.03;5011497;28;20479;-65
2022/03/30 01:33:45;;;;;;;31.90;7.65;;;;;;;10.35;63.65;95426.47;5013519;28;20068;-65
2022/03/30 01:36:11;;;;;;;29.48;8.70;;;;;;;10.18;64.53;95424.56;5014089;28;20033;-65
2022/03/30 01:38:37;;;;;;;25.23;7.85;;;;;;;10.01;65.89;95423.41;5026003;28;20026;-64
2022/03/30 01:41:02;;;;;;;30.30;7.72;;;;;;;10.04;67.76;95414.41;5014591;28;20030;-64
2022/03/30 01:43:28;;;;;;;27.17;7.40;;;;;;;10.05;67.77;95416.00;5014129;28;20029;-63
2022/03/30 01:45:55;;;;;;;23.67;7.55;;;;;;;10.19;66.53;95410.50;5013634;28;20030;-63
2022/03/30 01:48:20;;;;;;;32.97;8.27;;;;;;;10.36;64.86;95410.84;5011890;28;20069;-64
2022/03/30 01:50:46;;;;;;;38.53;9.82;;;;;;;10.18;65.02;95402.66;5021077;28;20034;-65
2022/03/30 01:53:11;;;;;;;38.30;7.78;;;;;;;10.05;65.76;95407.78;5019722;28;20042;-65
2022/03/30 01:55:37;;;;;;;36.20;7.93;;;;;;;9.99;68.58;95393.72;5015589;28;20029;-64
2022/03/30 01:58:02;;;;;;;32.53;7.30;;;;;;;9.98;69.19;95394.91;5014851;28;20479;-65
2022/03/30 02:00:28;;;;;;;39.15;6.95;;;;;;;9.81;70.14;95391.00;5014254;28;20026;-63
2022/03/30 02:02:53;;;;;;;24.08;7.75;;;;;;;9.63;71.55;95387.53;5014220;28;20107;-66
2022/03/30 02:05:19;;;;;;;36.50;8.77;;;;;;;9.49;73.26;95383.66;5013460;28;20084;-63
2022/03/30 02:07:45;;;;;;;22.33;6.35;;;;;;;9.34;74.48;95382.06;5012994;28;20047;-63
2022/03/30 02:10:11;;;;;;;26.25;7.05;;;;;;;9.53;74.88;95384.41;5013721;28;20040;-65
2022/03/30 02:12:37;;;;;;;30.20;7.07;;;;;;;9.59;73.20;95378.56;5012672;28;20117;-64
2022/03/30 02:15:04;;;;;;;27.75;8.45;;;;;;;9.56;72.79;95377.38;5013768;28;20458;-64
2022/03/30 02:17:29;;;;;;;41.75;8.02;;;;;;;9.81;71.20;95371.09;5013015;28;20109;-65
2022/03/30 02:19:55;;;;;;;43.00;9.07;;;;;;;9.63;71.35;95371.91;5011946;28;20110;-65
2022/03/30 02:22:24;;;;;;;34.25;8.30;;;;;;;9.48;72.19;95376.59;5011400;28;20069;-63
2022/03/30 02:24:51;;;;;;;27.00;8.20;;;;;;;9.48;72.40;95373.09;5013226;28;20034;-63
2022/03/30 02:27:20;;;;;;;36.85;9.07;;;;;;;9.43;71.44;95368.03;5012678;28;20278;-63
2022/03/30 02:29:51;;;;;;;31.73;9.50;;;;;;;9.36;72.05;95366.88;5013391;28;20038;-63
2022/03/30 02:32:17;;;;;;;33.20;9.05;;;;;;;9.53;72.15;95367.25;5013060;28;20044;-63
2022/03/30 02:34:43;;;;;;;25.52;8.07;;;;;;;9.53;72.17;95370.75;5013183;28;20026;-64
2022/03/30 02:37:09;;;;;;;36.78;9.50;;;;;;;9.63;71.91;95365.66;5012997;28;20044;-63
2022/03/30 02:39:35;;;;;;;37.53;8.60;;;;;;;9.65;71.44;95366.03;5011887;28;20105;-64
2022/03/30 02:42:01;;;;;;;35.40;8.60;;;;;;;9.67;71.28;95364.50;5012473;28;20038;-64
2022/03/30 02:44:27;;;;;;;35.83;8.63;;;;;;;9.63;71.18;95362.94;5012713;28;20037;-65
2022/03/30 02:46:53;;;;;;;33.42;7.32;;;;;;;9.72;70.83;95361.38;5012322;28;20021;-65
2022/03/30 02:49:18;;;;;;;43.00;7.40;;;;;;;9.70;70.48;95360.19;5012517;28;20069;-65
2022/03/30 02:51:43;;;;;;;35.40;8.15;;;;;;;9.71;70.29;95359.78;5012448;28;20509;-63
2022/03/30 02:54:09;;;;;;;27.50;7.40;;;;;;;9.85;69.45;95355.44;5012390;28;20516;-64
2022/03/30 02:56:34;;;;;;;39.72;8.23;;;;;;;9.80;69.00;95351.19;5012169;28;20033;-64
2022/03/30 02:59:00;;;;;;;33.25;8.50;;;;;;;9.77;69.52;95346.50;5012382;28;20506;-64
2022/03/30 03:01:25;;;;;;;28.85;7.53;;;;;;;9.93;69.76;95348.81;5012141;28;20045;-65
2022/03/30 03:03:50;;;;;;;37.17;7.75;;;;;;;9.90;69.39;95352.31;5012492;28;20120;-65
2022/03/30 03:06:16;;;;;;;33.30;6.82;;;;;;;9.89;69.02;95351.53;4995246;28;20521;-64
2022/03/30 03:08:42;;;;;;;39.72;8.60;;;;;;;9.49;72.96;95353.59;5026419;23;20470;-66
2022/03/30 03:11:07;;;;;;;35.45;8.15;;;;;;;9.28;73.46;95351.63;4996097;28;20033;-66
2022/03/30 03:13:32;;;;;;;28.60;7.65;;;;;;;9.25;73.89;95349.69;5013101;28;20080;-67
2022/03/30 03:15:58;;;;;;;31.33;8.50;;;;;;;9.26;73.72;95348.53;5013133;28;20418;-65
2022/03/30 03:18:23;;;;;;;37.95;9.80;;;;;;;9.38;73.47;95347.31;5012015;28;20041;-66
2022/03/30 03:20:49;;;;;;;31.67;8.95;;;;;;;9.46;73.42;95342.66;5013223;28;20041;-64
2022/03/30 03:23:16;;;;;;;24.05;6.68;;;;;;;9.50;72.58;95340.69;5013293;28;20100;-65
2022/03/30 03:25:41;;;;;;;33.17;8.13;;;;;;;9.43;72.54;95344.19;5012882;28;20037;-66
2022/03/30 03:28:09;;;;;;;27.17;9.43;;;;;;;9.51;72.82;95339.53;5012992;28;20108;-66
2022/03/30 03:30:35;;;;;;;33.08;8.35;;;;;;;9.72;71.08;95342.22;5012997;28;20465;-66
2022/03/30 03:33:01;;;;;;;41.42;9.45;;;;;;;9.75;71.10;95338.69;5012981;28;20038;-67
2022/03/30 03:35:28;;;;;;;44.33;10.02;;;;;;;9.85;70.20;95342.59;5012889;28;20486;-66
2022/03/30 03:37:53;;;;;;;33.70;7.20;;;;;;;9.86;70.63;95340.63;5011599;28;20033;-67
2022/03/30 03:40:19;;;;;;;29.40;7.90;;;;;;;9.80;70.03;95332.03;5012924;28;20059;-65
2022/03/30 03:42:44;;;;;;;34.60;9.18;;;;;;;9.79;70.47;95335.94;5013042;28;20059;-66
2022/03/30 03:45:10;;;;;;;28.48;8.02;;;;;;;9.72;70.65;95327.75;5012816;28;20030;-66
2022/03/30 03:47:36;;;;;;;41.20;9.57;;;;;;;9.67;70.72;95328.16;5011360;28;20374;-66
2022/03/30 03:50:02;;;;;;;38.00;8.70;;;;;;;9.56;71.83;95328.97;5012658;28;20029;-66
2022/03/30 03:52:28;;;;;;;43.60;8.68;;;;;;;9.42;73.49;95323.53;5012420;28;20121;-67
2022/03/30 03:54:53;;;;;;;31.52;9.25;;;;;;;9.33;75.23;95323.16;5012527;28;20463;-67
2022/03/30 03:57:19;;;;;;;48.83;10.15;;;;;;;9.13;75.59;95312.63;5012072;28;20095;-67
2022/03/30 03:59:44;;;;;;;33.25;9.57;;;;;;;8.93;76.61;95314.16;5012435;28;20033;-67
2022/03/30 04:02:10;;;;;;;37.85;8.88;;;;;;;8.85;76.81;95320.81;5012309;28;20025;-65
2022/03/30 04:04:37;;;;;;;37.70;10.88;;;;;;;8.73;76.68;95309.09;5012473;28;20025;-65
2022/03/30 04:07:03;;;;;;;37.85;8.32;;;;;;;8.68;77.28;95304.03;5011910;28;20036;-67
2022/03/30 04:09:29;;;;;;;30.00;9.70;;;;;;;8.65;77.22;95306.75;5012388;28;20038;-69
2022/03/30 04:11:55;;;;;;;29.58;8.57;;;;;;;8.49;76.92;95310.59;5012359;28;20564;-67
2022/03/30 04:14:20;;;;;;;32.25;8.55;;;;;;;8.41;77.45;95306.28;5012336;28;20087;-70
2022/03/30 04:16:47;;;;;;;39.15;10.18;;;;;;;8.50;77.32;95312.19;5011869;28;20056;-66
2022/03/30 04:19:15;;;;;;;35.42;9.38;;;;;;;8.55;76.63;95302.81;5012303;28;20029;-66
2022/03/30 04:21:41;;;;;;;35.92;10.45;;;;;;;8.60;77.04;95300.47;5012209;28;20109;-67
2022/03/30 04:24:07;;;;;;;47.28;10.50;;;;;;;8.70;76.55;95303.63;5012262;28;20553;-65
2022/03/30 04:26:32;;;;;;;34.75;8.55;;;;;;;8.75;75.79;95303.22;5011935;28;20030;-67
2022/03/30 04:28:57;;;;;;;32.85;8.00;;;;;;;8.72;75.15;95293.88;5010555;28;20029;-67
2022/03/30 04:31:23;;;;;;;45.28;9.55;;;;;;;8.70;74.75;95298.97;5010847;28;20091;-67
2022/03/30 04:33:48;;;;;;;49.97;10.80;;;;;;;8.72;74.63;95296.63;5010621;28;20033;-67
2022/03/30 04:36:14;;;;;;;44.47;9.32;;;;;;;8.76;74.84;95300.13;5011788;28;20101;-67
2022/03/30 04:38:39;;;;;;;40.58;10.40;;;;;;;8.79;74.63;95295.84;5012094;28;20076;-69
2022/03/30 04:41:04;;;;;;;29.35;9.32;;;;;;;8.81;74.91;95301.69;5012177;28;20117;-68
2022/03/30 04:43:31;;;;;;;39.17;9.13;;;;;;;8.87;74.83;95296.63;5022677;28;20045;-67
2022/03/30 04:45:56;;;;;;;36.75;9.75;;;;;;;8.88;74.47;95295.47;5029808;28;20501;-66
2022/03/30 04:48:22;;;;;;;44.55;9.77;;;;;;;8.91;73.04;95291.94;5024168;28;20025;-65
2022/03/30 04:50:49;;;;;;;42.38;8.88;;;;;;;8.92;73.11;95293.50;5011691;28;20422;-67
2022/03/30 04:53:14;;;;;;;36.08;8.35;;;;;;;8.97;72.31;95291.16;5011707;28;20037;-66
2022/03/30 04:55:40;;;;;;;36.70;7.80;;;;;;;9.17;73.09;95294.28;5011663;28;20037;-67
2022/03/30 04:58:05;;;;;;;29.25;7.97;;;;;;;9.36;72.00;95293.09;5011991;28;20429;-66
2022/03/30 05:00:32;;;;;;;37.53;9.75;;;;;;;9.44;72.14;95291.13;5026947;28;20113;-67
2022/03/30 05:02:57;;;;;;;41.30;9.93;;;;;;;9.45;72.44;95289.94;5033071;28;20616;-68
2022/03/30 05:05:23;;;;;;;35.25;8.70;;;;;;;9.42;74.70;95292.66;5031509;28;20048;-68
2022/03/30 05:07:48;;;;;;;39.08;8.48;;;;;;;9.36;73.98;95292.28;5028766;28;20049;-67
2022/03/30 05:10:15;;;;;;;38.08;11.05;;;;;;;9.46;73.92;95290.72;5015972;28;20041;-67
2022/03/30 05:12:41;;;;;;;38.15;9.43;;;;;;;9.40;73.66;95284.88;5011636;28;20038;-66
2022/03/30 05:15:10;;;;;;;26.65;10.23;;;;;;;9.41;73.16;95289.16;5011601;28;20087;-67
2022/03/30 05:17:38;;;;;;;38.65;10.52;;;;;;;9.43;73.50;95278.63;5011775;28;20117;-67
2022/03/30 05:20:05;;;;;;;39.30;10.38;;;;;;;9.43;73.39;95278.63;5010342;28;20021;-65
2022/03/30 05:22:33;;;;;;;32.53;7.95;;;;;;;9.23;76.83;95278.25;5011209;28;20034;-67
2022/03/30 05:24:58;;;;;;;39.60;9.02;;;;;;;9.26;76.99;95280.22;5021710;28;20034;-68
2022/03/30 05:27:23;;;;;;;38.10;8.45;;;;;;;9.25;77.64;95278.66;5033476;28;20041;-68
2022/03/30 05:29:49;;;;;;;28.55;8.60;;;;;;;9.17;78.60;95274.38;5017952;28;20025;-67
2022/03/30 05:32:15;;;;;;;31.92;8.18;;;;;;;9.23;79.21;95274.75;5013374;28;20062;-67
2022/03/30 05:34:41;;;;;;;36.75;10.65;;;;;;;9.19;81.87;95280.22;5012958;28;20105;-67
2022/03/30 05:37:06;;;;;;;32.70;8.88;;;;;;;9.18;83.59;95281.38;5010108;28;20054;-66
2022/03/30 05:39:32;;;;;;;41.22;8.43;;;;;;;9.24;83.83;95276.31;5011317;28;20032;-68
2022/03/30 05:41:57;;;;;;;28.83;9.50;;;;;;;9.18;86.04;95278.66;5011220;28;20543;-68
2022/03/30 05:44:23;;;;;;;37.47;10.27;;;;;;;9.27;86.12;95283.72;5011663;28;20076;-66
2022/03/30 05:46:48;;;;;;;43.85;11.52;;;;;;;9.44;84.25;95279.41;5010628;28;20030;-68
2022/03/30 05:49:14;;;;;;;32.58;8.70;;;;;;;9.36;84.94;95281.38;5011897;28;20433;-68
2022/03/30 05:51:39;;;;;;;53.15;10.45;;;;;;;9.31;83.28;95276.28;5016238;28;20037;-66
2022/03/30 05:54:05;;;;;;;40.90;9.75;;;;;;;9.44;83.01;95277.44;5026794;28;20045;-67
2022/03/30 05:59:15;;;;;;;24.02;8.38;;;;;;;9.50;81.81;95278.59;5011842;28;20105;-67
2022/03/30 06:01:41;;;;;;;38.53;8.68;;;;;;;9.57;79.48;95286.00;5011605;28;20042;-68
2022/03/30 06:04:06;;;;;;;41.25;9.00;;;;;;;9.46;79.66;95277.84;5009907;28;20026;-67
2022/03/30 06:06:32;;;;;;;33.13;7.82;;;;;;;9.66;79.70;95272.72;5011040;28;20033;-70
2022/03/30 06:08:58;;;;;;;38.80;9.18;;;;;;;9.69;80.55;95280.13;5009704;28;20486;-68
2022/03/30 06:11:23;;;;;;;30.65;8.10;;;;;;;9.81;79.49;95280.88;5010948;28;20030;-66
2022/03/30 06:13:49;;;;;;;30.77;8.05;;;;;;;9.88;79.63;95281.59;5011529;28;20052;-67
2022/03/30 06:16:15;;;;;;;30.52;7.22;;;;;;;9.99;81.74;95283.53;5014208;28;20030;-68
2022/03/30 06:18:43;;;;;;;29.85;9.73;;;;;;;10.00;81.32;95279.63;5013386;28;20028;-67
2022/03/30 06:21:09;;;;;;;32.83;6.65;;;;;;;10.20;80.65;95282.66;5014476;28;20053;-67
2022/03/30 06:23:35;;;;;;;39.05;8.25;;;;;;;10.13;80.75;95281.50;5013211;28;20068;-67
2022/03/30 06:26:01;;;;;;;30.50;6.93;;;;;;;10.20;80.10;95275.22;5016264;28;20439;-67
2022/03/30 06:28:29;;;;;;;33.78;6.88;;;;;;;10.35;80.19;95278.69;5026904;28;20458;-67
2022/03/30 06:30:55;;;;;;;26.42;6.47;;;;;;;10.42;80.05;95281.38;5026896;28;20044;-68
2022/03/30 06:33:20;;;;;;;29.42;8.18;;;;;;;10.48;80.28;95282.53;5020700;28;20109;-64
2022/03/30 06:35:46;;;;;;;40.78;7.53;;;;;;;10.53;80.55;95286.78;5014226;28;20029;-67
2022/03/30 06:38:12;;;;;;;45.83;9.73;;;;;;;10.62;79.92;95283.59;5014194;28;20096;-66
2022/03/30 06:40:37;;;;;;;32.03;7.85;;;;;;;10.61;79.17;95285.56;5014296;28;20046;-67
2022/03/30 06:43:03;;;;;;;32.75;9.70;;;;;;;10.78;77.81;95294.84;5014857;28;20510;-66
2022/03/30 06:45:28;;;;;;;44.92;7.35;;;;;;;10.99;74.20;95287.66;5014263;28;20037;-67
2022/03/30 06:47:53;;;;;;;35.17;7.60;;;;;;;10.99;76.70;95290.41;5015598;28;20030;-67
2022/03/30 06:50:20;;;;;;;35.40;7.82;;;;;;;11.05;74.85;95284.06;5021078;28;20038;-66
2022/03/30 06:52:46;;;;;;;34.83;8.75;;;;;;;11.08;75.96;95279.75;5023106;28;20021;-67
2022/03/30 06:55:14;;;;;;;22.98;6.35;;;;;;;11.08;75.66;95282.50;5015584;28;20120;-66
2022/03/30 06:57:41;;;;;;;30.02;8.43;;;;;;;11.08;75.66;95283.25;5012945;28;20038;-67
2022/03/30 07:00:07;;;;;;;34.50;9.85;;;;;;;10.97;75.83;95270.84;5014328;28;20110;-66
2022/03/30 07:02:32;;;;;;;34.25;8.55;;;;;;;10.89;76.71;95278.31;5014214;28;20088;-66
2022/03/30 07:04:58;;;;;;;39.00;9.30;;;;;;;10.94;77.82;95266.19;4997092;28;20212;-68
2022/03/30 07:10:17;;;;;;;34.47;7.57;;;;;;;11.06;77.03;95269.19;4994454;28;20522;-67
2022/03/30 07:12:45;;;;;;;38.92;7.75;;;;;;;11.22;74.96;95268.66;5006218;28;20042;-67
2022/03/30 07:15:11;;;;;;;26.42;7.82;;;;;;;11.18;76.44;95258.91;5015412;28;20026;-69
2022/03/30 07:17:53;;;;;;;26.45;7.80;;;;;;;11.23;75.71;95269.44;5014057;28;20113;-67
2022/03/30 07:20:20;;;;;;;29.60;7.40;;;;;;;11.31;74.65;95264.66;4995420;28;20103;-66
2022/03/30 07:22:50;;;;;;;43.03;7.10;;;;;;;11.38;74.55;95265.38;4994232;28;20034;-67
2022/03/30 07:25:18;;;;;;;36.95;7.50;;;;;;;11.41;73.84;95264.56;4993626;28;20038;-67
2022/03/30 07:27:46;;;;;;;30.02;7.07;;;;;;;11.41;74.13;95261.03;4993318;28;20037;-66
2022/03/30 07:30:13;;;;;;;21.45;7.15;;;;;;;11.50;73.36;95255.09;4993787;28;20027;-67
2022/03/30 07:32:41;;;;;;;31.23;6.80;;;;;;;11.52;73.72;95250.75;4993744;28;20073;-67
2022/03/30 07:35:08;;;;;;;31.95;7.57;;;;;;;11.44;76.18;95261.00;4998317;28;20053;-68
2022/03/30 07:37:34;;;;;;;34.00;8.73;;;;;;;11.21;81.88;95253.41;5018827;28;20209;-67
2022/03/30 07:40:00;;;;;;;32.00;7.80;;;;;;;10.78;85.62;95251.03;5025638;28;20030;-68
2022/03/30 07:42:26;;;;;;;45.22;7.43;;;;;;;10.41;87.56;95254.44;5018917;28;20107;-67
2022/03/30 07:44:52;;;;;;;39.25;9.10;;;;;;;10.49;87.40;95253.97;5020260;28;20026;-67
2022/03/30 07:47:18;;;;;;;37.25;8.57;;;;;;;10.57;87.60;95253.91;4998665;28;20125;-67
2022/03/30 07:49:44;;;;;;;35.97;7.90;;;;;;;10.55;86.94;95256.28;5002138;28;20041;-65
2022/03/30 07:52:09;;;;;;;30.52;9.63;;;;;;;10.74;85.58;95257.72;4996384;28;20056;-67
2022/03/30 07:54:35;;;;;;;38.70;8.32;;;;;;;10.94;85.02;95250.50;5002078;28;20069;-65
2022/03/30 07:57:00;;;;;;;26.65;6.97;;;;;;;11.08;84.17;95246.88;4995566;28;20042;-64
2022/03/30 07:59:26;;;;;;;24.20;8.55;;;;;;;11.39;82.75;95253.22;4984413;28;20049;-66
2022/03/30 08:01:53;;;;;;;36.60;8.48;;;;;;;11.65;80.03;95251.78;4992280;28;20042;-65
2022/03/30 08:04:20;;;;;;;30.83;6.75;;;;;;;11.88;77.66;95250.34;4990540;28;20466;-66
2022/03/30 08:06:45;;;;;;;33.70;7.38;;;;;;;12.01;76.38;95248.66;4994381;28;20049;-67
2022/03/30 08:09:10;;;;;;;31.02;8.90;;;;;;;11.93;76.35;95254.63;4989145;28;20038;-67
2022/03/30 08:11:36;;;;;;;25.10;6.78;;;;;;;11.75;79.75;95257.56;5001480;28;20042;-66
2022/03/30 08:14:01;;;;;;;31.08;6.80;;;;;;;11.92;80.03;95258.56;5002014;28;20072;-66
2022/03/30 08:16:27;;;;;;;28.60;7.15;;;;;;;11.77;81.36;95261.44;4994860;28;20065;-66
2022/03/30 08:18:52;;;;;;;27.75;6.95;;;;;;;11.82;81.53;95263.72;5000232;28;20193;-66
2022/03/30 08:24:03;;;;;;;24.15;6.05;;;;;;;11.67;83.94;95262.34;4996948;28;20042;-68
2022/03/30 08:26:31;;;;;;;24.90;7.03;;;;;;;11.39;85.44;95257.94;4998053;28;20057;-68
2022/03/30 08:28:56;;;;;;;28.52;7.18;;;;;;;11.35;85.90;95257.97;5004359;28;20041;-67
2022/03/30 08:31:22;;;;;;;25.40;6.00;;;;;;;11.42;86.97;95268.09;4999927;28;20582;-67
2022/03/30 08:33:47;;;;;;;33.28;10.32;;;;;;;11.49;86.69;95257.06;5000770;28;20044;-66
2022/03/30 08:36:12;;;;;;;29.17;8.60;;;;;;;11.43;88.34;95258.66;4997809;28;20037;-66
2022/03/30 08:38:38;;;;;;;20.60;5.78;;;;;;;11.25;85.54;95259.66;4997298;28;20068;-67
2022/03/30 08:41:04;;;;;;;25.20;6.68;;;;;;;11.17;83.97;95262.84;4996548;28;20076;-68
2022/03/30 08:43:30;;;;;;;25.98;6.30;;;;;;;11.12;84.73;95257.81;5001635;28;20045;-68
2022/03/30 08:45:58;;;;;;;20.52;6.20;;;;;;;10.86;86.78;95259.97;5002132;28;20045;-68
2022/03/30 08:48:23;;;;;;;27.98;8.63;;;;;;;10.85;83.58;95261.16;4995437;28;21065;-67
2022/03/30 08:50:50;;;;;;;24.00;6.80;;;;;;;10.85;86.28;95255.69;5001809;28;20046;-65
2022/03/30 08:53:16;;;;;;;20.42;5.45;;;;;;;10.60;84.44;95267.59;4996661;28;20050;-67
2022/03/30 08:55:42;;;;;;;21.77;5.40;;;;;;;10.69;86.10;95258.91;4999659;28;20115;-67
2022/03/30 08:58:09;;;;;;;26.50;7.20;;;;;;;10.48;87.26;95273.56;4996239;28;20484;-67
2022/03/30 09:00:34;;;;;;;21.67;5.63;;;;;;;10.46;89.03;95275.88;4999038;28;20150;-67
2022/03/30 09:03:01;;;;;;;20.45;5.07;;;;;;;10.22;90.38;95277.56;5002207;28;20045;-67
2022/03/30 09:05:37;;;;;;;26.67;7.55;;;;;;;10.37;92.02;95275.56;4996458;28;20061;-67
2022/03/30 09:08:12;;;;;;;28.70;10.75;;;;;;;10.46;93.11;95278.63;5000616;28;20052;-65
2022/03/30 09:10:38;;;;;;;27.98;7.68;;;;;;;10.54;92.88;95274.66;5002668;28;20048;-68
2022/03/30 09:13:05;;;;;;;28.60;6.63;;;;;;;10.50;91.29;95282.91;5013724;28;20038;-66
2022/03/30 09:15:32;;;;;;;24.73;7.15;;;;;;;10.75;92.20;95284.72;5020074;28;20108;-67
2022/03/30 09:17:59;;;;;;;20.55;6.78;;;;;;;10.81;90.69;95282.31;5005365;28;20490;-68
2022/03/30 09:20:25;;;;;;;26.98;6.75;;;;;;;10.76;89.94;95283.50;4997779;28;20267;-67
2022/03/30 09:22:54;;;;;;;21.77;6.43;;;;;;;10.77;92.07;95282.34;5004303;28;20046;-66
2022/03/30 09:25:23;;;;;;;19.60;6.22;;;;;;;10.80;93.44;95280.75;4998085;28;20077;-66
2022/03/30 09:27:52;;;;;;;25.58;6.60;;;;;;;11.02;94.14;95284.09;5002140;28;20145;-65
2022/03/30 09:30:17;;;;;;;22.02;7.15;;;;;;;10.76;98.89;95280.00;4996061;28;20103;-65
2022/03/30 09:32:45;;;;;;;16.80;5.82;;;;;;;10.57;100.00;95284.03;5004676;28;20063;-69
2022/03/30 09:35:30;;;;;;;24.10;8.05;;;;;;;10.50;100.00;95276.66;4999386;28;20045;-67
2022/03/30 09:38:09;;;;;;;29.77;7.03;;;;;;;11.03;98.19;95280.19;5008496;28;20042;-68
2022/03/30 09:40:38;;;;;;;22.93;7.73;;;;;;;11.00;100.00;95275.50;5021761;28;20060;-68
2022/03/30 09:43:22;;;;;;;19.30;6.60;;;;;;;11.19;100.00;95279.66;5021281;28;20092;-65
2022/03/30 09:45:51;;;;;;;23.67;7.65;;;;;;;11.17;100.00;95273.81;5002921;28;20064;-67
2022/03/30 09:48:25;;;;;;;30.15;11.10;;;;;;;10.90;100.00;95275.19;4997800;28;20133;-67
2022/03/30 09:50:54;;;;;;;32.38;11.77;;;;;;;10.99;100.00;95271.22;5004237;28;20402;-68
2022/03/30 09:53:26;;;;;;;31.30;7.60;;;;;;;10.91;100.00;95281.44;5000017;28;20038;-66
2022/03/30 09:56:05;;;;;;;22.00;6.40;;;;;;;10.91;100.00;95273.22;5004784;28;20049;-66
2022/03/30 09:58:37;;;;;;;24.55;8.20;;;;;;;10.54;100.00;95279.38;5003584;28;20386;-68
2022/03/30 10:01:05;;;;;;;23.30;7.40;;;;;;;10.45;100.00;95274.34;5003316;28;20056;-70
2022/03/30 10:03:43;;;;;;;22.75;8.32;;;;;;;10.49;100.00;95272.34;5004351;28;20127;-67
2022/03/30 10:06:13;;;;;;;25.60;8.68;;;;;;;10.52;100.00;95272.34;4999922;28;20073;-67
2022/03/30 10:08:41;;;;;;;30.45;7.72;;;;;;;10.86;100.00;95255.28;5012635;28;20068;-67
2022/03/30 10:11:06;;;;;;;28.80;7.97;;;;;;;10.95;100.00;95256.75;5021769;28;20042;-65
2022/03/30 10:13:32;;;;;;;26.08;8.50;;;;;;;10.72;100.00;95258.13;5025666;28;20073;-66
2022/03/30 10:15:58;;;;;;;23.77;7.90;;;;;;;11.00;100.00;95251.66;5023506;28;20041;-66
2022/03/30 10:18:24;;;;;;;27.92;7.65;;;;;;;11.14;100.00;95256.19;5005102;28;20053;-66
2022/03/30 10:21:03;;;;;;;25.50;7.57;;;;;;;11.32;100.00;95250.56;5003008;28;20042;-65
2022/03/30 10:23:50;;;;;;;27.73;8.85;;;;;;;11.36;100.00;95243.09;5001630;28;20045;-66
2022/03/30 10:26:32;;;;;;;34.75;9.07;;;;;;;11.62;100.00;95238.88;4999589;28;20050;-67
2022/03/30 10:29:04;;;;;;;28.48;8.45;;;;;;;11.64;100.00;95238.47;5005076;28;20052;-65
2022/03/30 10:31:30;;;;;;;26.67;8.50;;;;;;;11.55;100.00;95236.22;5002927;28;20483;-67
2022/03/30 10:33:56;;;;;;;27.13;8.68;;;;;;;11.33;100.00;95238.41;5005772;28;20046;-65
2022/03/30 10:36:22;;;;;;;33.20;9.40;;;;;;;10.80;100.00;95232.22;4997283;28;20068;-68
2022/03/30 10:39:07;;;;;;;34.20;9.00;;;;;;;10.97;100.00;95237.97;5003780;28;20104;-67
2022/03/30 10:42:12;;;;;;;28.17;7.60;;;;;;;10.64;100.00;95230.03;5003191;28;20096;-66
2022/03/30 10:44:41;;;;;;;29.45;9.90;;;;;;;10.79;100.00;95229.91;5003700;28;20045;-68
2022/03/30 10:47:12;;;;;;;27.83;9.57;;;;;;;10.98;100.00;95229.34;4998867;28;20050;-66
2022/03/30 10:49:47;;;;;;;28.85;8.77;;;;;;;10.47;100.00;95223.47;5005066;28;20044;-67
2022/03/30 10:52:27;;;;;;;35.80;9.65;;;;;;;10.56;100.00;95225.00;5000046;28;20390;-67
2022/03/30 10:55:11;;;;;;;27.42;8.73;;;;;;;10.52;100.00;95216.81;5004601;28;20448;-67
2022/03/30 10:57:43;;;;;;;28.98;9.25;;;;;;;10.68;100.00;95219.81;5003671;28;20135;-66
2022/03/30 11:00:19;;;;;;;34.95;13.38;;;;;;;11.02;100.00;95212.88;4999562;28;20038;-65
2022/03/30 11:02:45;;;;;;;29.83;9.10;;;;;;;10.93;100.00;95215.28;5003287;28;20125;-67
2022/03/30 11:05:13;;;;;;;28.15;8.48;;;;;;;11.10;100.00;95214.38;4999142;28;20041;-67
2022/03/30 11:07:39;;;;;;;26.23;9.68;;;;;;;10.93;100.00;95207.88;5003679;28;20049;-67
2022/03/30 11:10:17;;;;;;;25.05;7.93;;;;;;;10.67;100.00;95214.75;4985957;28;20049;-68
2022/03/30 11:13:08;;;;;;;25.98;8.65;;;;;;;10.89;100.00;95210.66;5004259;28;20060;-68
2022/03/30 11:15:59;;;;;;;26.15;7.70;;;;;;;10.87;100.00;95207.50;5009850;28;20061;-67
2022/03/30 11:18:26;;;;;;;23.17;9.40;;;;;;;10.73;100.00;95204.13;5001506;28;20149;-68
2022/03/30 11:21:15;;;;;;;22.48;8.85;;;;;;;10.86;100.00;95197.75;5004345;28;20132;-68
2022/03/30 11:23:55;;;;;;;26.65;10.25;;;;;;;10.73;100.00;95198.66;5001589;28;20486;-69
2022/03/30 11:26:22;;;;;;;27.60;8.48;;;;;;;11.05;100.00;95187.41;4998129;28;20137;-68
2022/03/30 11:28:48;;;;;;;24.25;8.85;;;;;;;11.12;100.00;95192.03;5004286;28;20041;-68
2022/03/30 11:31:23;;;;;;;25.95;8.15;;;;;;;11.31;100.00;95185.19;4998564;28;20112;-66
2022/03/30 11:34:26;;;;;;;25.80;8.35;;;;;;;11.12;100.00;95187.34;5003580;28;20434;-69
2022/03/30 11:36:53;;;;;;;29.08;9.82;;;;;;;10.88;100.00;95189.13;5009489;28;20046;-65
2022/03/30 11:39:33;;;;;;;18.48;7.65;;;;;;;10.67;100.00;95185.38;5014709;28;20058;-66